CYUL/YUL METAR and TAF weather

Enter ICAO airport designator
Station Type Date Time Source
CYUL METAR 2019/04/25 22:00 UTC NOAA

CYUL 252200Z 00000KT 30SM FEW035 FEW120 SCT240 10/02 A2992 RMK SC1AC1CI1 SLP134


Station Type Date Time Source
CYUL Decoded METAR 2019/04/25 22:00 UTC NOAA

Montreal / Pierre Elliot Trudeau International Airport, Que, Canada (CYUL) 45-28N 073-45W 36M
Apr 25, 2019 - 06:00 PM EDT / 2019.04.25 2200 UTC
Wind: Calm:0
Visibility: 30 mile(s):0
Sky conditions: partly cloudy
Temperature: 50 F (10 C)
Dew Point: 35 F (2 C)
Relative Humidity: 57%
Pressure (altimeter): 29.92 in. Hg (1013 hPa)
ob: CYUL 252200Z 00000KT 30SM FEW035 FEW120 SCT240 10/02 A2992 RMK SC1AC1CI1 SLP134
cycle: 22

Station Type Date Time Source
CYUL TAF 2019/04/25 21:42 UTC NOAA

TAF CYUL 252038Z 2521/2618 20007KT P6SM FEW015 BKN030
FM252200 20007KT P6SM SCT030 BKN120
FM260200 06005KT P6SM SCT120 BKN240
FM260900 04012KT P6SM BKN100 OVC220
FM261400 08015G25KT 6SM -RA BR SCT020 OVC040
FM261700 12015G25KT 4SM -RA BR OVC015
RMK NXT FCST BY 260000Z

Example: see airport list